createdAt,value
2022-07-25T00:00:37.255Z,84.80
2022-07-25T00:03:06.761Z,81.40
2022-07-25T00:05:38.907Z,82.20
2022-07-25T00:08:08.872Z,82.00
2022-07-25T00:10:36.896Z,82.20
2022-07-25T00:13:05.006Z,81.20
2022-07-25T00:15:33.109Z,79.00
2022-07-25T00:18:01.165Z,81.00
2022-07-25T00:20:29.255Z,79.20
2022-07-25T00:22:57.248Z,81.40
2022-07-25T00:25:26.811Z,77.60
2022-07-25T00:27:54.966Z,78.10
2022-07-25T00:30:23.205Z,77.60
2022-07-25T00:32:51.189Z,81.10
2022-07-25T00:35:19.259Z,80.40
2022-07-25T00:37:47.290Z,81.80
2022-07-25T00:40:17.361Z,82.30
2022-07-25T00:42:46.955Z,80.20
2022-07-25T00:45:17.493Z,82.20
2022-07-25T00:47:47.734Z,80.30
2022-07-25T00:50:15.770Z,81.30
2022-07-25T00:52:44.193Z,81.20
2022-07-25T00:55:14.140Z,79.30
2022-07-25T00:57:44.202Z,79.10
2022-07-25T01:00:16.254Z,79.70
2022-07-25T01:02:48.259Z,79.20
2022-07-25T01:05:19.220Z,76.90
2022-07-25T01:07:48.394Z,76.30
2022-07-25T01:10:16.470Z,78.30
2022-07-25T01:12:53.755Z,81.40
2022-07-25T01:15:24.869Z,82.30
2022-07-25T01:17:53.576Z,82.30
2022-07-25T01:20:27.628Z,83.70
2022-07-25T01:22:59.312Z,84.20
2022-07-25T01:25:28.298Z,84.90
2022-07-25T01:27:57.735Z,85.50
2022-07-25T01:30:26.341Z,83.10
2022-07-25T01:32:54.881Z,84.30
2022-07-25T01:35:24.571Z,82.80
2022-07-25T01:37:52.894Z,86.30
2022-07-25T01:40:20.968Z,87.00
2022-07-25T01:42:48.951Z,87.30
2022-07-25T01:45:16.985Z,87.50
2022-07-25T01:47:45.175Z,87.60
2022-07-25T01:50:15.680Z,87.30
2022-07-25T01:52:46.400Z,87.80
2022-07-25T01:55:14.908Z,85.60
2022-07-25T01:57:49.772Z,87.10
2022-07-25T02:00:18.899Z,85.80
2022-07-25T02:02:47.314Z,86.80
2022-07-25T02:05:16.288Z,86.30
2022-07-25T02:07:45.796Z,84.50
2022-07-25T02:10:14.030Z,86.20
2022-07-25T02:12:42.007Z,84.60
2022-07-25T02:15:10.921Z,86.10
2022-07-25T02:17:39.375Z,86.00
2022-07-25T02:20:08.760Z,86.20
2022-07-25T02:22:36.810Z,84.50
2022-07-25T02:25:07.045Z,85.40
2022-07-25T02:27:35.055Z,86.60
2022-07-25T02:30:03.296Z,87.80
2022-07-25T02:32:31.660Z,88.90
2022-07-25T02:35:01.763Z,86.60
2022-07-25T02:37:30.021Z,88.30
2022-07-25T02:39:58.188Z,87.50
2022-07-25T02:42:27.701Z,86.00
2022-07-25T02:44:55.709Z,84.20
2022-07-25T02:47:23.676Z,82.10
2022-07-25T02:49:54.546Z,82.00
2022-07-25T02:52:22.519Z,82.70
2022-07-25T02:54:52.964Z,84.40
2022-07-25T02:57:21.129Z,83.40
2022-07-25T02:59:50.691Z,84.70
2022-07-25T03:02:21.896Z,89.80
2022-07-25T03:04:52.520Z,91.20
2022-07-25T03:07:20.826Z,91.50
2022-07-25T03:09:48.926Z,89.80
2022-07-25T03:12:21.695Z,90.20
2022-07-25T03:14:52.239Z,88.70
2022-07-25T03:17:20.518Z,90.40
2022-07-25T03:19:48.580Z,88.70
2022-07-25T03:22:16.642Z,88.40
2022-07-25T03:24:44.884Z,90.30
2022-07-25T03:27:12.871Z,90.20
2022-07-25T03:29:43.859Z,87.50
2022-07-25T03:32:13.877Z,85.10
2022-07-25T03:34:42.010Z,85.90
2022-07-25T03:37:10.043Z,87.10
2022-07-25T03:39:38.317Z,87.30
2022-07-25T03:42:06.408Z,85.00
2022-07-25T03:47:08.989Z,84.00
2022-07-25T03:49:50.191Z,85.60
2022-07-25T03:52:18.245Z,85.90
2022-07-25T03:54:46.374Z,86.90
2022-07-25T03:57:18.880Z,89.10
2022-07-25T03:59:46.881Z,88.80
2022-07-25T04:02:14.954Z,88.40
2022-07-25T04:04:42.981Z,87.40
2022-07-25T04:07:12.315Z,86.00
2022-07-25T04:09:40.306Z,87.10
2022-07-25T04:12:08.488Z,88.20
2022-07-25T04:14:36.488Z,89.80
2022-07-25T04:17:04.529Z,88.10
2022-07-25T04:19:32.570Z,87.90
2022-07-25T04:22:00.759Z,86.70
2022-07-25T04:24:30.127Z,87.50
2022-07-25T04:26:58.271Z,85.80
2022-07-25T04:29:26.259Z,84.80
2022-07-25T04:31:54.309Z,84.90
2022-07-25T04:34:22.372Z,85.70
2022-07-25T04:36:50.550Z,86.80
2022-07-25T04:39:18.583Z,85.80
2022-07-25T04:41:48.537Z,84.30
2022-07-25T04:44:16.687Z,85.30
2022-07-25T04:46:44.733Z,83.90
2022-07-25T04:49:12.899Z,79.80
2022-07-25T04:51:41.033Z,78.00
2022-07-25T04:54:09.624Z,75.80
2022-07-25T04:56:38.331Z,77.00
2022-07-25T04:59:07.857Z,74.00
2022-07-25T05:01:36.256Z,74.60
2022-07-25T05:04:04.680Z,74.80
2022-07-25T05:06:33.183Z,72.00
2022-07-25T05:09:01.243Z,72.50
2022-07-25T05:11:29.259Z,74.10
2022-07-25T05:13:57.486Z,76.30
2022-07-25T05:16:27.076Z,74.10
2022-07-25T05:18:55.116Z,75.80
2022-07-25T05:21:23.145Z,70.90
2022-07-25T05:23:51.343Z,69.80
2022-07-25T05:26:19.359Z,72.40
2022-07-25T05:28:47.376Z,70.90
2022-07-25T05:31:15.440Z,67.20
2022-07-25T05:33:45.274Z,69.70
2022-07-25T05:36:13.278Z,68.20
2022-07-25T05:38:41.905Z,68.60
2022-07-25T05:41:11.001Z,68.40
2022-07-25T05:43:39.041Z,67.30
2022-07-25T05:46:07.385Z,66.40
2022-07-25T05:48:35.529Z,66.40
2022-07-25T05:51:05.192Z,67.30
2022-07-25T05:53:33.375Z,67.20
2022-07-25T05:56:01.556Z,66.90
2022-07-25T05:58:30.185Z,67.00
2022-07-25T06:00:58.579Z,65.10
2022-07-25T06:03:26.899Z,64.40
2022-07-25T06:05:56.708Z,63.70
2022-07-25T06:08:28.569Z,62.90
2022-07-25T06:10:57.803Z,62.80
2022-07-25T06:13:26.045Z,62.00
2022-07-25T06:15:56.236Z,61.70
2022-07-25T06:18:24.687Z,61.70
2022-07-25T06:20:52.832Z,60.80
2022-07-25T06:23:21.792Z,58.10
2022-07-25T06:25:52.243Z,56.40
2022-07-25T06:28:20.377Z,53.00
2022-07-25T06:30:49.714Z,53.80
2022-07-25T06:33:17.798Z,51.90
2022-07-25T06:35:45.751Z,52.50
2022-07-25T06:38:13.797Z,51.80
2022-07-25T06:40:41.804Z,51.60
2022-07-25T06:43:11.175Z,51.70
2022-07-25T06:45:39.150Z,48.50
2022-07-25T06:48:07.456Z,46.60
2022-07-25T06:50:35.451Z,45.50
2022-07-25T06:53:03.996Z,43.80
2022-07-25T06:55:32.108Z,43.20
2022-07-25T06:58:00.109Z,41.40
2022-07-25T07:00:29.856Z,40.70
2022-07-25T07:03:01.201Z,39.80
2022-07-25T07:05:31.115Z,37.20
2022-07-25T07:07:59.825Z,36.50
2022-07-25T07:10:28.836Z,37.60
2022-07-25T07:13:07.954Z,34.50
2022-07-25T07:15:38.019Z,32.30
2022-07-25T07:18:06.628Z,29.90
2022-07-25T07:20:34.731Z,29.20
2022-07-25T07:23:02.775Z,27.80
2022-07-25T07:25:31.231Z,28.60
2022-07-25T07:27:59.224Z,27.80
2022-07-25T07:30:52.044Z,27.60
2022-07-25T07:33:16.763Z,26.50
2022-07-25T07:35:46.054Z,26.30
2022-07-25T07:38:14.870Z,25.90
2022-07-25T07:40:42.840Z,27.10
2022-07-25T07:43:10.970Z,26.30
2022-07-25T07:45:39.020Z,27.10
2022-07-25T07:48:08.048Z,26.40
2022-07-25T07:50:37.601Z,25.70
2022-07-25T07:53:06.771Z,25.80
2022-07-25T07:55:46.590Z,24.10
2022-07-25T07:58:16.716Z,25.00
2022-07-25T08:00:46.352Z,23.20
2022-07-25T08:03:17.881Z,22.80
2022-07-25T08:05:48.025Z,22.70
2022-07-25T08:08:16.819Z,22.40
2022-07-25T08:10:46.297Z,22.40
2022-07-25T08:13:16.867Z,22.70
2022-07-25T08:15:46.196Z,22.40
2022-07-25T08:18:16.947Z,21.00
2022-07-25T08:20:47.815Z,21.10
2022-07-25T08:23:16.245Z,21.10
2022-07-25T08:25:51.090Z,20.70
2022-07-25T08:28:19.223Z,20.40
2022-07-25T08:30:47.682Z,18.20
2022-07-25T08:33:17.016Z,17.90
2022-07-25T08:35:51.784Z,17.60
2022-07-25T08:38:20.485Z,18.60
2022-07-25T08:40:48.777Z,16.90
2022-07-25T08:43:18.919Z,17.50
2022-07-25T08:45:48.949Z,16.40
2022-07-25T08:48:19.197Z,17.30
2022-07-25T08:50:49.872Z,16.40
2022-07-25T08:53:35.924Z,15.00
2022-07-25T08:56:12.156Z,16.20
2022-07-25T08:58:44.064Z,14.40
2022-07-25T09:01:13.225Z,12.40
2022-07-25T09:03:42.940Z,11.30
2022-07-25T09:06:21.215Z,10.40
2022-07-25T09:08:57.020Z,12.20
2022-07-25T09:11:29.856Z,12.00
2022-07-25T09:14:02.823Z,12.30
2022-07-25T09:16:35.281Z,13.70
2022-07-25T09:19:14.648Z,12.40
2022-07-25T09:21:46.150Z,12.00
2022-07-25T09:24:16.914Z,12.70
2022-07-25T09:26:46.995Z,13.40
2022-07-25T09:29:23.689Z,11.80
2022-07-25T09:31:52.705Z,12.20
2022-07-25T09:34:37.748Z,12.60
2022-07-25T09:37:09.347Z,11.30
2022-07-25T09:39:45.545Z,8.90
2022-07-25T09:42:19.832Z,8.30
2022-07-25T09:44:59.858Z,6.00
2022-07-25T09:47:28.282Z,7.50
2022-07-25T09:49:56.756Z,6.80
2022-07-25T09:52:26.098Z,6.50
2022-07-25T09:54:54.749Z,5.10
2022-07-25T09:57:24.080Z,6.10
2022-07-25T09:59:52.099Z,3.60
2022-07-25T10:02:34.050Z,3.20
2022-07-25T10:05:13.656Z,3.20
2022-07-25T10:07:46.256Z,4.60
2022-07-25T10:10:30.265Z,2.10
2022-07-25T10:13:09.467Z,1.00
2022-07-25T10:15:46.092Z,1.00
2022-07-25T10:18:15.161Z,1.30
2022-07-25T10:20:43.885Z,1.00
2022-07-25T10:23:21.062Z,1.00
2022-07-25T10:26:00.360Z,1.00
2022-07-25T10:28:47.285Z,1.00
2022-07-25T10:31:22.483Z,1.00
2022-07-25T10:33:53.628Z,1.00
2022-07-25T10:36:22.827Z,1.00
2022-07-25T10:38:57.372Z,1.00
2022-07-25T10:41:27.278Z,1.00
2022-07-25T10:44:00.932Z,1.00
2022-07-25T10:46:31.165Z,1.00
2022-07-25T10:49:01.123Z,1.00
2022-07-25T10:51:30.864Z,1.00
2022-07-25T10:54:00.530Z,1.00
2022-07-25T10:56:30.109Z,1.00
2022-07-25T10:58:59.692Z,1.00
2022-07-25T11:01:29.478Z,1.00
2022-07-25T11:03:59.793Z,1.00
2022-07-25T11:06:33.657Z,1.00
2022-07-25T11:09:03.936Z,1.00
2022-07-25T11:11:37.380Z,1.00
2022-07-25T11:14:06.676Z,1.00
2022-07-25T11:16:34.762Z,1.00
2022-07-25T11:19:03.084Z,1.00
2022-07-25T11:21:31.231Z,1.00
2022-07-25T11:23:59.250Z,1.00
2022-07-25T11:26:29.047Z,1.00
2022-07-25T11:28:57.050Z,1.00
2022-07-25T11:31:25.113Z,1.00
2022-07-25T11:33:53.294Z,1.00
2022-07-25T11:36:21.470Z,1.00
2022-07-25T11:38:50.699Z,1.00
2022-07-25T11:41:30.831Z,1.00
2022-07-25T11:43:58.795Z,1.00
2022-07-25T11:46:27.194Z,1.00
2022-07-25T11:49:06.283Z,1.00
2022-07-25T11:51:38.951Z,1.00
2022-07-25T11:54:13.160Z,1.00
2022-07-25T11:56:43.951Z,1.70
2022-07-25T11:59:12.546Z,1.00
2022-07-25T12:01:42.528Z,1.50
2022-07-25T12:04:15.330Z,3.80
2022-07-25T12:06:44.514Z,8.40
2022-07-25T12:09:19.122Z,1.00
2022-07-25T12:11:50.390Z,1.00
2022-07-25T12:14:18.585Z,1.00
2022-07-25T12:16:46.664Z,1.00
2022-07-25T12:19:22.208Z,1.00
2022-07-25T12:21:50.438Z,1.00
2022-07-25T12:24:18.512Z,1.00
2022-07-25T12:26:47.952Z,1.00
2022-07-25T12:29:15.977Z,1.00
2022-07-25T12:31:44.180Z,1.00
2022-07-25T12:34:12.243Z,1.00
2022-07-25T12:36:44.100Z,1.00
2022-07-25T12:39:12.449Z,1.00
2022-07-25T12:41:42.911Z,1.00
2022-07-25T12:44:12.461Z,1.00
2022-07-25T12:46:47.400Z,1.00
2022-07-25T12:49:17.660Z,1.00
2022-07-25T12:51:45.848Z,1.00
2022-07-25T12:54:21.697Z,1.00
2022-07-25T12:56:50.432Z,1.00
2022-07-25T12:59:19.894Z,1.00
2022-07-25T13:01:48.065Z,1.00
2022-07-25T13:04:16.176Z,1.00
2022-07-25T13:06:44.168Z,1.00
2022-07-25T13:09:12.190Z,1.00
2022-07-25T13:11:40.341Z,1.00
2022-07-25T13:14:08.364Z,1.00
2022-07-25T13:16:38.363Z,1.00
2022-07-25T13:19:07.636Z,1.00
2022-07-25T13:21:37.350Z,1.00
2022-07-25T13:24:07.083Z,1.00
2022-07-25T13:26:35.608Z,1.00
2022-07-25T13:29:08.435Z,1.00
2022-07-25T13:31:39.573Z,1.00
2022-07-25T13:34:08.773Z,1.00
2022-07-25T13:36:38.050Z,1.00
2022-07-25T13:39:06.941Z,1.00
2022-07-25T13:41:35.143Z,1.00
2022-07-25T13:44:03.185Z,1.00
2022-07-25T13:46:32.057Z,1.00
2022-07-25T13:49:01.593Z,1.00
2022-07-25T13:51:29.710Z,1.00
2022-07-25T13:53:57.929Z,1.00
2022-07-25T13:56:26.032Z,1.00
2022-07-25T13:58:54.081Z,1.00
2022-07-25T14:01:22.182Z,1.00
2022-07-25T14:03:50.224Z,1.00
2022-07-25T14:06:19.715Z,1.00
2022-07-25T14:08:47.781Z,1.00
2022-07-25T14:11:15.816Z,1.00
2022-07-25T14:13:45.295Z,1.00
2022-07-25T14:16:16.454Z,1.00
2022-07-25T14:18:44.515Z,1.00
2022-07-25T14:21:12.608Z,1.00
2022-07-25T14:23:41.944Z,1.00
2022-07-25T14:26:09.993Z,1.00
2022-07-25T14:28:38.058Z,1.00
2022-07-25T14:31:06.294Z,1.00
2022-07-25T14:33:37.886Z,1.00
2022-07-25T14:36:06.479Z,1.00
2022-07-25T14:38:34.652Z,1.00
2022-07-25T14:41:07.736Z,1.00
2022-07-25T14:43:38.665Z,1.00
2022-07-25T14:46:08.029Z,1.00
2022-07-25T14:48:37.249Z,1.00
2022-07-25T14:51:06.046Z,1.00
2022-07-25T14:53:34.428Z,1.00
2022-07-25T14:56:06.457Z,1.00
2022-07-25T14:58:35.277Z,1.00
2022-07-25T15:01:03.434Z,1.00
2022-07-25T15:03:31.703Z,1.00
2022-07-25T15:05:59.858Z,1.00
2022-07-25T15:08:29.072Z,1.00
2022-07-25T15:10:57.248Z,1.00
2022-07-25T15:13:31.778Z,1.00
2022-07-25T15:16:00.362Z,1.00
2022-07-25T15:18:28.601Z,1.00
2022-07-25T15:20:56.603Z,1.00
2022-07-25T15:23:28.631Z,1.00
2022-07-25T15:26:01.810Z,1.00
2022-07-25T15:28:33.634Z,1.00
2022-07-25T15:31:01.801Z,1.00
2022-07-25T15:33:29.942Z,1.00
2022-07-25T15:35:57.895Z,1.00
2022-07-25T15:38:26.017Z,1.00
2022-07-25T15:40:54.094Z,1.00
2022-07-25T15:43:23.225Z,1.00
2022-07-25T15:45:52.572Z,1.00
2022-07-25T15:48:20.877Z,1.30
2022-07-25T15:50:51.515Z,2.60
2022-07-25T15:53:19.862Z,3.10
2022-07-25T15:55:47.939Z,2.70
2022-07-25T15:58:15.947Z,3.00
2022-07-25T16:00:44.307Z,1.70
2022-07-25T16:03:14.012Z,3.00
2022-07-25T16:05:43.914Z,3.60
2022-07-25T16:08:12.244Z,4.20
2022-07-25T16:10:40.363Z,4.70
2022-07-25T16:13:08.502Z,7.30
2022-07-25T16:15:36.616Z,10.10
2022-07-25T16:18:04.734Z,5.40
2022-07-25T16:20:34.130Z,6.30
2022-07-25T16:23:02.726Z,4.80
2022-07-25T16:25:31.684Z,7.50
2022-07-25T16:28:00.752Z,7.00
2022-07-25T16:30:29.759Z,7.60
2022-07-25T16:32:57.770Z,7.50
2022-07-25T16:35:25.960Z,10.00
2022-07-25T16:37:55.309Z,5.70
2022-07-25T16:40:27.366Z,6.50
2022-07-25T16:42:59.627Z,7.80
2022-07-25T16:45:28.190Z,10.60
2022-07-25T16:47:56.517Z,10.60
2022-07-25T16:50:24.644Z,10.60
2022-07-25T16:52:53.612Z,12.50
2022-07-25T16:55:23.045Z,12.60
2022-07-25T16:57:51.101Z,16.20
2022-07-25T17:00:20.846Z,7.50
2022-07-25T17:02:49.635Z,9.70
2022-07-25T17:05:17.760Z,10.70
2022-07-25T17:07:45.825Z,11.00
2022-07-25T17:10:13.874Z,11.50
2022-07-25T17:12:43.312Z,11.10
2022-07-25T17:15:12.457Z,11.50
2022-07-25T17:17:40.539Z,10.60
2022-07-25T17:20:09.932Z,11.50
2022-07-25T17:22:38.812Z,11.10
2022-07-25T17:25:07.907Z,10.20
2022-07-25T17:27:37.181Z,10.20
2022-07-25T17:30:07.866Z,12.70
2022-07-25T17:32:35.930Z,7.90
2022-07-25T17:35:04.039Z,7.80
2022-07-25T17:37:32.154Z,9.00
2022-07-25T17:40:00.666Z,9.30
2022-07-25T17:42:28.732Z,10.30
2022-07-25T17:44:57.009Z,9.40
2022-07-25T17:47:26.743Z,9.70
2022-07-25T17:49:54.790Z,9.50
2022-07-25T17:52:22.853Z,9.50
2022-07-25T17:54:50.902Z,10.30
2022-07-25T17:57:18.929Z,10.10
2022-07-25T17:59:46.970Z,9.70
2022-07-25T18:02:15.098Z,10.20
2022-07-25T18:04:44.819Z,10.70
2022-07-25T18:07:12.873Z,10.30
2022-07-25T18:09:40.939Z,10.60
2022-07-25T18:12:09.181Z,9.80
2022-07-25T18:14:37.284Z,10.10
2022-07-25T18:17:06.797Z,10.10
2022-07-25T18:19:34.846Z,11.20
2022-07-25T18:22:04.963Z,13.80
2022-07-25T18:24:33.205Z,10.30
2022-07-25T18:27:01.475Z,10.60
2022-07-25T18:29:29.487Z,8.50
2022-07-25T18:31:57.482Z,8.20
2022-07-25T18:34:25.709Z,9.60
2022-07-25T18:36:53.902Z,7.80
2022-07-25T18:39:23.602Z,9.40
2022-07-25T18:41:51.858Z,9.20
2022-07-25T18:44:20.338Z,10.00
2022-07-25T18:46:48.653Z,10.70
2022-07-25T18:49:16.927Z,10.20
2022-07-25T18:51:45.194Z,11.20
2022-07-25T18:54:13.282Z,11.40
2022-07-25T18:56:43.694Z,11.90
2022-07-25T18:59:11.986Z,10.30
2022-07-25T19:01:40.253Z,19.70
2022-07-25T19:04:08.662Z,14.90
2022-07-25T19:06:37.979Z,14.20
2022-07-25T19:09:06.211Z,15.40
2022-07-25T19:11:37.680Z,14.70
2022-07-25T19:14:11.642Z,15.30
2022-07-25T19:16:39.810Z,16.60
2022-07-25T19:19:09.523Z,16.60
2022-07-25T19:21:37.706Z,15.70
2022-07-25T19:24:06.746Z,16.30
2022-07-25T19:26:35.176Z,15.90
2022-07-25T19:29:03.312Z,15.60
2022-07-25T19:31:32.862Z,16.50
2022-07-25T19:34:01.005Z,16.40
2022-07-25T19:36:29.110Z,16.40
2022-07-25T19:38:57.141Z,16.90
2022-07-25T19:41:25.311Z,16.20
2022-07-25T19:43:54.499Z,17.20
2022-07-25T19:46:23.093Z,23.20
2022-07-25T19:48:52.573Z,14.50
2022-07-25T19:51:20.697Z,14.70
2022-07-25T19:53:48.728Z,14.10
2022-07-25T19:56:16.736Z,14.00
2022-07-25T19:58:45.382Z,14.00
2022-07-25T20:01:13.965Z,13.90
2022-07-25T20:03:42.476Z,13.80
2022-07-25T20:06:12.040Z,14.20
2022-07-25T20:08:40.392Z,14.50
2022-07-25T20:11:08.651Z,14.90
2022-07-25T20:13:37.176Z,15.30
2022-07-25T20:16:05.883Z,14.90
2022-07-25T20:18:34.064Z,15.30
2022-07-25T20:21:02.201Z,15.90
2022-07-25T20:23:31.937Z,14.90
2022-07-25T20:26:00.559Z,14.00
2022-07-25T20:28:28.695Z,13.90
2022-07-25T20:30:57.509Z,14.60
2022-07-25T20:33:27.153Z,13.90
2022-07-25T20:35:55.630Z,16.10
2022-07-25T20:38:25.332Z,18.60
2022-07-25T20:40:56.424Z,20.50
2022-07-25T20:43:25.151Z,21.50
2022-07-25T20:45:53.356Z,16.90
2022-07-25T20:48:21.411Z,16.00
2022-07-25T20:50:49.685Z,17.50
2022-07-25T20:53:17.832Z,17.50
2022-07-25T20:55:45.898Z,15.50
2022-07-25T20:58:15.451Z,16.40
2022-07-25T21:00:43.913Z,17.10
2022-07-25T21:03:12.151Z,17.30
2022-07-25T21:05:42.012Z,17.70
2022-07-25T21:08:11.010Z,17.80
2022-07-25T21:10:40.025Z,16.20
2022-07-25T21:13:08.427Z,16.70
2022-07-25T21:15:37.775Z,17.30
2022-07-25T21:18:06.059Z,14.70
2022-07-25T21:20:34.105Z,17.20
2022-07-25T21:23:02.393Z,16.40
2022-07-25T21:25:30.487Z,15.90
2022-07-25T21:27:58.642Z,15.80
2022-07-25T21:30:26.883Z,16.30
2022-07-25T21:32:56.460Z,15.20
2022-07-25T21:35:24.717Z,15.80
2022-07-25T21:37:52.785Z,17.00
2022-07-25T21:40:20.987Z,15.30
2022-07-25T21:42:49.036Z,16.40
2022-07-25T21:45:17.043Z,17.10
2022-07-25T21:47:45.068Z,17.80
2022-07-25T21:50:31.692Z,18.40
2022-07-25T21:52:59.671Z,17.80
2022-07-25T21:55:27.728Z,18.50
2022-07-25T21:57:55.724Z,18.60
2022-07-25T22:00:23.874Z,19.70
2022-07-25T22:02:54.526Z,19.00
2022-07-25T22:05:24.379Z,19.30
2022-07-25T22:07:53.312Z,19.00
2022-07-25T22:10:22.235Z,20.10
2022-07-25T22:12:50.571Z,19.70
2022-07-25T22:15:18.555Z,21.80
2022-07-25T22:17:49.499Z,19.90
2022-07-25T22:20:18.908Z,19.70
2022-07-25T22:22:48.897Z,20.40
2022-07-25T22:25:17.049Z,21.70
2022-07-25T22:27:45.396Z,22.40
2022-07-25T22:30:18.766Z,23.00
2022-07-25T22:32:47.950Z,21.70
2022-07-25T22:35:16.068Z,22.10
2022-07-25T22:37:44.278Z,22.70
2022-07-25T22:40:14.681Z,22.70
2022-07-25T22:42:42.850Z,22.90
2022-07-25T22:45:11.642Z,23.00
2022-07-25T22:47:39.669Z,22.50
2022-07-25T22:50:09.565Z,23.30
2022-07-25T22:52:37.560Z,23.60
2022-07-25T22:55:06.184Z,25.80
2022-07-25T22:57:37.114Z,27.20
2022-07-25T23:00:07.424Z,37.20
2022-07-25T23:02:35.536Z,31.70
2022-07-25T23:05:03.679Z,26.90
2022-07-25T23:07:31.704Z,24.40
2022-07-25T23:09:59.781Z,23.90
2022-07-25T23:12:27.800Z,23.40
2022-07-25T23:14:57.318Z,24.00
2022-07-25T23:17:25.355Z,22.50
2022-07-25T23:19:55.235Z,23.10
2022-07-25T23:22:24.957Z,23.30
2022-07-25T23:24:53.405Z,23.90
2022-07-25T23:27:21.385Z,25.40
2022-07-25T23:29:49.429Z,27.20
2022-07-25T23:32:18.803Z,28.00
2022-07-25T23:34:46.862Z,28.90
2022-07-25T23:37:14.869Z,29.80
2022-07-25T23:39:42.859Z,29.20
2022-07-25T23:42:10.867Z,29.80
2022-07-25T23:44:39.583Z,28.30
2022-07-25T23:47:10.089Z,28.20
2022-07-25T23:49:39.644Z,26.90
2022-07-25T23:52:07.800Z,28.20
2022-07-25T23:54:35.871Z,28.10
2022-07-25T23:57:04.039Z,27.00
2022-07-25T23:59:32.094Z,27.30
